Mohac — 3FOX4 — position and weather

sailwx.info

Track history (hours):
 
Tides and Currents Weather Stations Pressure Air Temp Water Temp Dewpoint Dewpoint Depression Visibility Wind Speed Wind Dir Waves Ship Positions

Mohac

Last reported at 2017-Oct-19 16:32 UTC. Time now 2017-Oct-20 05:31 UTC.
Position N 36°00' W 005°12'.

Length 135 m; draft 8 m.

Type: Cargo ship. MMSI: 372105000.

Date/timePositionNaut miles runAvg speedWind from/ knotsBaromVisibWave heightAir tempDewpointWater temp
2017-Oct-19 16:32N 36°00' W 005°12'115.3
2017-Oct-19 16:30N 36°00' W 005°12'715.0
2017-Oct-19 16:00N 35°59' W 005°21'714.6
2017-Oct-19 15:30N 35°57' W 005°30'209 9.8
2017-Oct-18 18:06N 37°33' W 009°22'211.3
2017-Oct-18 17:53N 37°35' W 009°21'511.8
2017-Oct-18 17:29N 37°40' W 009°19'612.3
2017-Oct-18 17:00N 37°45' W 009°17'612.3
2017-Oct-18 16:31N 37°51' W 009°15'612.0
2017-Oct-18 16:01N 37°57' W 009°13'611.8
2017-Oct-18 15:30N 38°02' W 009°10'611.8
2017-Oct-18 15:01N 38°08' W 009°07'1111.0
2017-Oct-18 14:01N 38°18' W 009°03'4 7.9
2017-Oct-18 13:30N 38°22' W 009°01'5 9.2
2017-Oct-18 13:01N 38°26' W 008°59'4 7.2
2017-Oct-18 12:31N 38°29' W 008°56'3 6.3
2017-Oct-18 12:00N 38°31' W 008°53'0 0.1
2017-Oct-18 07:12N 38°31' W 008°52'0 0.0
2017-Oct-18 05:24N 38°31' W 008°52'0 0.0
2017-Oct-18 05:00N 38°31' W 008°52'0 0.0
2017-Oct-18 04:15N 38°31' W 008°52'0 0.0
2017-Oct-18 03:54N 38°31' W 008°52'0 0.0
2017-Oct-17 21:57N 38°31' W 008°52'0 0.0
2017-Oct-17 21:27N 38°31' W 008°52'0 0.0
2017-Oct-17 21:00N 38°31' W 008°52'0 0.0
2017-Oct-17 20:18N 38°31' W 008°52'0 0.0
2017-Oct-17 20:00N 38°31' W 008°52'0 0.0
2017-Oct-17 19:30N 38°31' W 008°52'0 0.0
2017-Oct-17 18:57N 38°31' W 008°52'0 0.0
2017-Oct-17 18:27N 38°31' W 008°52'0 0.0
2017-Oct-17 18:00N 38°31' W 008°52'0 0.0
2017-Oct-17 17:30N 38°31' W 008°52'0 0.0
2017-Oct-17 17:00N 38°31' W 008°52'0 0.0
2017-Oct-17 15:03N 38°31' W 008°52'0 0.0
2017-Oct-17 14:54N 38°31' W 008°52'0 0.0
2017-Oct-17 14:30N 38°31' W 008°52'0 0.0
2017-Oct-17 13:57N 38°31' W 008°52'0 0.0
2017-Oct-17 13:30N 38°31' W 008°52'0 0.0
2017-Oct-17 13:00N 38°31' W 008°52'0 0.0
2017-Oct-17 12:30N 38°31' W 008°52'0 0.0
2017-Oct-17 12:00N 38°31' W 008°52'0 0.0
2017-Oct-17 11:27N 38°31' W 008°52'0 0.0
2017-Oct-17 11:00N 38°31' W 008°52'0 0.0
2017-Oct-17 09:54N 38°31' W 008°52'0 0.0
2017-Oct-17 09:30N 38°31' W 008°52'0 0.0
2017-Oct-17 08:06N 38°31' W 008°52'0 0.0
2017-Oct-17 08:00N 38°31' W 008°52'0 0.0
2017-Oct-17 07:30N 38°31' W 008°52'0 0.0
2017-Oct-17 07:00N 38°31' W 008°52'0 0.0
2017-Oct-17 06:30N 38°31' W 008°52'0 0.0
2017-Oct-17 06:00N 38°31' W 008°52'0 0.0
2017-Oct-17 05:30N 38°31' W 008°52'0 0.0
2017-Oct-17 05:00N 38°31' W 008°52'0 0.0
2017-Oct-17 04:30N 38°31' W 008°52'0 0.0
2017-Oct-17 03:54N 38°31' W 008°52'0 0.0
2017-Oct-17 02:51N 38°31' W 008°52'0 0.0
2017-Oct-17 02:24N 38°31' W 008°52'0 0.0
2017-Oct-17 01:51N 38°31' W 008°52'0 0.0
2017-Oct-17 01:30N 38°31' W 008°52'0 0.0
2017-Oct-17 01:00N 38°31' W 008°52'0 0.0
2017-Oct-17 00:12N 38°31' W 008°52'0 0.0
2017-Oct-17 00:00N 38°31' W 008°52'0 0.0
2017-Oct-16 19:30N 38°31' W 008°52'0 0.0
2017-Oct-16 19:00N 38°31' W 008°52'0 0.0
2017-Oct-16 18:24N 38°31' W 008°52'0 0.0
2017-Oct-16 17:54N 38°31' W 008°52'0 0.0
2017-Oct-16 17:30N 38°31' W 008°52'0 0.0
2017-Oct-16 17:00N 38°31' W 008°52'0 0.0
2017-Oct-16 16:21N 38°31' W 008°52'0 0.0
2017-Oct-16 16:00N 38°31' W 008°52'0 0.0
2017-Oct-16 15:30N 38°31' W 008°52'0 0.0
2017-Oct-16 15:00N 38°31' W 008°52'0 0.0
2017-Oct-16 14:30N 38°31' W 008°52'0 0.0
2017-Oct-16 13:30N 38°31' W 008°52'0 0.0
2017-Oct-16 13:00N 38°31' W 008°52'0 0.0
2017-Oct-16 12:30N 38°31' W 008°52'0 0.0
2017-Oct-16 05:54N 38°31' W 008°52'0 0.0
2017-Oct-16 05:30N 38°31' W 008°52'0 0.0
2017-Oct-16 05:00N 38°31' W 008°52'0 0.0
2017-Oct-16 04:30N 38°31' W 008°52'0 0.0
2017-Oct-16 03:54N 38°31' W 008°52'0 0.0
2017-Oct-16 03:30N 38°31' W 008°52'0 0.0
2017-Oct-16 03:00N 38°31' W 008°52'0 0.0
2017-Oct-16 02:30N 38°31' W 008°52'0 0.0
2017-Oct-16 01:48N 38°31' W 008°52'0 0.0
2017-Oct-16 01:30N 38°31' W 008°52'0 0.0
2017-Oct-16 00:48N 38°31' W 008°52'0 0.0
2017-Oct-16 00:21N 38°31' W 008°52'0 0.0
2017-Oct-16 00:00N 38°31' W 008°52'0 0.0
2017-Oct-15 23:30N 38°31' W 008°52'0 0.0
2017-Oct-15 23:00N 38°31' W 008°52'0 0.0
2017-Oct-15 22:30N 38°31' W 008°52'0 0.0
2017-Oct-15 22:00N 38°31' W 008°52'0 0.0
2017-Oct-15 21:30N 38°31' W 008°52'0 0.0
2017-Oct-15 20:54N 38°31' W 008°52'0 0.0
2017-Oct-15 20:30N 38°31' W 008°52'0 0.0
2017-Oct-15 20:00N 38°31' W 008°52'0 0.0
2017-Oct-15 19:27N 38°31' W 008°52'0 0.0
2017-Oct-15 19:00N 38°31' W 008°52'0 0.0
2017-Oct-15 18:30N 38°31' W 008°52'0 0.0
2017-Oct-15 17:57N 38°31' W 008°52'1 2.3
2017-Oct-15 17:30N 38°31' W 008°54'4 7.7
2017-Oct-15 17:01N 38°28' W 008°57'3 6.2
2017-Oct-15 16:31N 38°26' W 008°60'2 4.2
2017-Oct-15 16:00N 38°24' W 009°01'3 5.7
2017-Oct-15 15:30N 38°23' W 009°04'510.7
2017-Oct-15 15:00N 38°21' W 009°11'1211.6
2017-Oct-15 14:00N 38°24' W 009°25'611.6
2017-Oct-15 13:30N 38°26' W 009°32'612.1
2017-Oct-15 13:01N 38°28' W 009°39'611.8
2017-Oct-15 12:31N 38°31' W 009°46'611.6
2017-Oct-15 12:00N 38°32' W 009°53'611.7
2017-Oct-15 11:30N 38°34' W 010°00'510.6
2017-Oct-15 11:00N 38°39' W 010°04'612.0
2017-Oct-15 10:30N 38°45' W 010°05'612.3
2017-Oct-15 10:00N 38°51' W 010°05'612.0
2017-Oct-15 09:30N 38°57' W 010°05'612.1
2017-Oct-15 09:00N 39°03' W 010°04'612.5
2017-Oct-15 08:30N 39°09' W 010°03'613.0
2017-Oct-15 08:00N 39°16' W 010°03'713.0
2017-Oct-15 07:30N 39°22' W 010°03'612.6
2017-Oct-15 07:00N 39°28' W 010°03'712.1
2017-Oct-15 06:27N 39°35' W 010°03'612.2
2017-Oct-15 06:00N 39°41' W 010°03'612.0
2017-Oct-15 05:30N 39°47' W 010°03'612.2
2017-Oct-15 05:00N 39°53' W 010°03'612.2
2017-Oct-15 04:30N 39°59' W 010°04'612.2
2017-Oct-15 04:00N 40°05' W 010°04'612.3
2017-Oct-15 03:30N 40°11' W 010°04'712.0
2017-Oct-15 02:54N 40°18' W 010°05'  
2017-Oct-12 16:03N 44°09' W 006°50'14211.0
2017-Oct-12 03:13N 45°19' W 003°57'411.5
2017-Oct-12 02:53N 45°21' W 003°52'6112.2
2017-Oct-11 21:53N 45°49' W 002°35'3212.3
2017-Oct-11 19:18N 46°03' W 001°54'412.0
2017-Oct-11 19:00N 46°05' W 001°50'611.8
2017-Oct-11 18:30N 46°08' W 001°42'611.6
2017-Oct-11 17:59N 46°08' W 001°34'611.6
2017-Oct-11 17:30N 46°07' W 001°26'510.7
2017-Oct-11 17:01N 46°06' W 001°18'4 0.3
2017-Oct-10 23:58N 46°10' W 001°14'0 0.0
2017-Oct-10 23:28N 46°10' W 001°14'0 0.0
2017-Oct-10 22:58N 46°10' W 001°14'0 0.0
2017-Oct-10 22:28N 46°10' W 001°14'0 0.0
2017-Oct-10 21:58N 46°10' W 001°14'0 0.0
2017-Oct-10 21:28N 46°10' W 001°14'0 0.0
2017-Oct-10 20:58N 46°10' W 001°14'0 0.0
2017-Oct-10 20:28N 46°10' W 001°14'0 0.0
2017-Oct-10 19:58N 46°10' W 001°14'0 0.0
2017-Oct-10 19:28N 46°10' W 001°14'0 0.0
2017-Oct-10 18:58N 46°10' W 001°14'0 0.0
2017-Oct-10 18:28N 46°10' W 001°14'0 0.0
2017-Oct-10 17:58N 46°10' W 001°14'0 0.0
2017-Oct-10 17:25N 46°10' W 001°14'0 0.0
2017-Oct-10 16:58N 46°10' W 001°14'0 0.0
2017-Oct-10 16:28N 46°10' W 001°14'0 0.0
2017-Oct-10 15:58N 46°10' W 001°14'0 0.0
2017-Oct-10 15:28N 46°10' W 001°14'0 0.0
2017-Oct-10 14:58N 46°10' W 001°14'0 0.0
2017-Oct-10 13:58N 46°10' W 001°14'0 0.0
2017-Oct-10 13:28N 46°10' W 001°14'0 0.0
2017-Oct-10 12:58N 46°10' W 001°14'0 0.0
2017-Oct-10 12:28N 46°10' W 001°14'0 0.0
2017-Oct-10 11:58N 46°10' W 001°14'0 0.0
2017-Oct-10 11:28N 46°10' W 001°14'0 0.0
2017-Oct-10 10:58N 46°10' W 001°14'0 0.0
2017-Oct-10 10:28N 46°10' W 001°14'0 0.0
2017-Oct-10 09:58N 46°10' W 001°14'0 0.0
2017-Oct-10 09:28N 46°10' W 001°14'0 0.0
2017-Oct-10 08:58N 46°10' W 001°14'0 0.0
2017-Oct-10 08:28N 46°10' W 001°14'0 0.0
2017-Oct-10 07:58N 46°10' W 001°14'0 0.0
2017-Oct-10 07:28N 46°10' W 001°14'0 0.0
2017-Oct-10 06:58N 46°10' W 001°14'0 0.0
2017-Oct-10 06:22N 46°10' W 001°14'0 0.0
2017-Oct-10 05:58N 46°10' W 001°14'0 0.0
2017-Oct-10 05:28N 46°10' W 001°14'0 0.0
2017-Oct-10 04:58N 46°10' W 001°14'0 0.0
2017-Oct-10 04:28N 46°10' W 001°14'0 0.0
2017-Oct-10 03:58N 46°10' W 001°14'0 0.0
2017-Oct-10 03:28N 46°10' W 001°14'0 0.0
2017-Oct-10 02:58N 46°10' W 001°14'0 0.0
2017-Oct-10 02:28N 46°10' W 001°14'0 0.0
2017-Oct-10 01:58N 46°10' W 001°14'0 0.0
2017-Oct-10 01:28N 46°10' W 001°14'0 0.0
2017-Oct-10 00:58N 46°10' W 001°14'0 0.0
2017-Oct-10 00:28N 46°10' W 001°14'0 0.0
2017-Oct-09 23:55N 46°10' W 001°14'0 0.0
2017-Oct-09 23:28N 46°10' W 001°14'0 0.0
2017-Oct-09 22:58N 46°10' W 001°14'0 0.0
2017-Oct-09 22:28N 46°10' W 001°14'0 0.0
2017-Oct-09 21:58N 46°10' W 001°14'0 0.0
2017-Oct-09 21:28N 46°10' W 001°14'0 0.0
2017-Oct-09 20:58N 46°10' W 001°14'0 0.0
2017-Oct-09 20:28N 46°10' W 001°14'0 0.0
2017-Oct-09 19:58N 46°10' W 001°14'0 0.0
2017-Oct-09 19:28N 46°10' W 001°14'0 0.0
2017-Oct-09 18:58N 46°10' W 001°14'0 0.0
2017-Oct-09 18:28N 46°10' W 001°14'0 0.0
2017-Oct-09 17:58N 46°10' W 001°14'0 0.0
2017-Oct-09 17:28N 46°10' W 001°14'0 0.0
2017-Oct-09 16:58N 46°10' W 001°14'  
Track history (hours):
 
Tides and Currents Weather Stations Pressure Air Temp Water Temp Dewpoint Dewpoint Depression Visibility Wind Speed Wind Dir Waves Ship Positions

Mohac

Last reported at 2017-Oct-19 16:32 UTC. Time now 2017-Oct-20 05:31 UTC.
Position N 36°00' W 005°12'.

Length 135 m; draft 8 m.

Type: Cargo ship. MMSI: 372105000.

Date/timePositionNaut miles runAvg speedWind from/ knotsBaromVisibWave heightAir tempDewpointWater temp
2017-Oct-19 16:32N 36°00' W 005°12'115.3
2017-Oct-19 16:30N 36°00' W 005°12'715.0
2017-Oct-19 16:00N 35°59' W 005°21'714.6
2017-Oct-19 15:30N 35°57' W 005°30'209 9.8
2017-Oct-18 18:06N 37°33' W 009°22'211.3
2017-Oct-18 17:53N 37°35' W 009°21'511.8
2017-Oct-18 17:29N 37°40' W 009°19'612.3
2017-Oct-18 17:00N 37°45' W 009°17'612.3
2017-Oct-18 16:31N 37°51' W 009°15'612.0
2017-Oct-18 16:01N 37°57' W 009°13'611.8
2017-Oct-18 15:30N 38°02' W 009°10'611.8
2017-Oct-18 15:01N 38°08' W 009°07'1111.0
2017-Oct-18 14:01N 38°18' W 009°03'4 7.9
2017-Oct-18 13:30N 38°22' W 009°01'5 9.2
2017-Oct-18 13:01N 38°26' W 008°59'4 7.2
2017-Oct-18 12:31N 38°29' W 008°56'3 6.3
2017-Oct-18 12:00N 38°31' W 008°53'0 0.1
2017-Oct-18 07:12N 38°31' W 008°52'0 0.0
2017-Oct-18 05:24N 38°31' W 008°52'0 0.0
2017-Oct-18 05:00N 38°31' W 008°52'0 0.0
2017-Oct-18 04:15N 38°31' W 008°52'0 0.0
2017-Oct-18 03:54N 38°31' W 008°52'0 0.0
2017-Oct-17 21:57N 38°31' W 008°52'0 0.0
2017-Oct-17 21:27N 38°31' W 008°52'0 0.0
2017-Oct-17 21:00N 38°31' W 008°52'0 0.0
2017-Oct-17 20:18N 38°31' W 008°52'0 0.0
2017-Oct-17 20:00N 38°31' W 008°52'0 0.0
2017-Oct-17 19:30N 38°31' W 008°52'0 0.0
2017-Oct-17 18:57N 38°31' W 008°52'0 0.0
2017-Oct-17 18:27N 38°31' W 008°52'0 0.0
2017-Oct-17 18:00N 38°31' W 008°52'0 0.0
2017-Oct-17 17:30N 38°31' W 008°52'0 0.0
2017-Oct-17 17:00N 38°31' W 008°52'0 0.0
2017-Oct-17 15:03N 38°31' W 008°52'0 0.0
2017-Oct-17 14:54N 38°31' W 008°52'0 0.0
2017-Oct-17 14:30N 38°31' W 008°52'0 0.0
2017-Oct-17 13:57N 38°31' W 008°52'0 0.0
2017-Oct-17 13:30N 38°31' W 008°52'0 0.0
2017-Oct-17 13:00N 38°31' W 008°52'0 0.0
2017-Oct-17 12:30N 38°31' W 008°52'0 0.0
2017-Oct-17 12:00N 38°31' W 008°52'0 0.0
2017-Oct-17 11:27N 38°31' W 008°52'0 0.0
2017-Oct-17 11:00N 38°31' W 008°52'0 0.0
2017-Oct-17 09:54N 38°31' W 008°52'0 0.0
2017-Oct-17 09:30N 38°31' W 008°52'0 0.0
2017-Oct-17 08:06N 38°31' W 008°52'0 0.0
2017-Oct-17 08:00N 38°31' W 008°52'0 0.0
2017-Oct-17 07:30N 38°31' W 008°52'0 0.0
2017-Oct-17 07:00N 38°31' W 008°52'0 0.0
2017-Oct-17 06:30N 38°31' W 008°52'0 0.0
2017-Oct-17 06:00N 38°31' W 008°52'0 0.0
2017-Oct-17 05:30N 38°31' W 008°52'0 0.0
2017-Oct-17 05:00N 38°31' W 008°52'0 0.0
2017-Oct-17 04:30N 38°31' W 008°52'0 0.0
2017-Oct-17 03:54N 38°31' W 008°52'0 0.0
2017-Oct-17 02:51N 38°31' W 008°52'0 0.0
2017-Oct-17 02:24N 38°31' W 008°52'0 0.0
2017-Oct-17 01:51N 38°31' W 008°52'0 0.0
2017-Oct-17 01:30N 38°31' W 008°52'0 0.0
2017-Oct-17 01:00N 38°31' W 008°52'0 0.0
2017-Oct-17 00:12N 38°31' W 008°52'0 0.0
2017-Oct-17 00:00N 38°31' W 008°52'0 0.0
2017-Oct-16 19:30N 38°31' W 008°52'0 0.0
2017-Oct-16 19:00N 38°31' W 008°52'0 0.0
2017-Oct-16 18:24N 38°31' W 008°52'0 0.0
2017-Oct-16 17:54N 38°31' W 008°52'0 0.0
2017-Oct-16 17:30N 38°31' W 008°52'0 0.0
2017-Oct-16 17:00N 38°31' W 008°52'0 0.0
2017-Oct-16 16:21N 38°31' W 008°52'0 0.0
2017-Oct-16 16:00N 38°31' W 008°52'0 0.0
2017-Oct-16 15:30N 38°31' W 008°52'0 0.0
2017-Oct-16 15:00N 38°31' W 008°52'0 0.0
2017-Oct-16 14:30N 38°31' W 008°52'0 0.0
2017-Oct-16 13:30N 38°31' W 008°52'0 0.0
2017-Oct-16 13:00N 38°31' W 008°52'0 0.0
2017-Oct-16 12:30N 38°31' W 008°52'0 0.0
2017-Oct-16 05:54N 38°31' W 008°52'0 0.0
2017-Oct-16 05:30N 38°31' W 008°52'0 0.0
2017-Oct-16 05:00N 38°31' W 008°52'0 0.0
2017-Oct-16 04:30N 38°31' W 008°52'0 0.0
2017-Oct-16 03:54N 38°31' W 008°52'0 0.0
2017-Oct-16 03:30N 38°31' W 008°52'0 0.0
2017-Oct-16 03:00N 38°31' W 008°52'0 0.0
2017-Oct-16 02:30N 38°31' W 008°52'0 0.0
2017-Oct-16 01:48N 38°31' W 008°52'0 0.0
2017-Oct-16 01:30N 38°31' W 008°52'0 0.0
2017-Oct-16 00:48N 38°31' W 008°52'0 0.0
2017-Oct-16 00:21N 38°31' W 008°52'0 0.0
2017-Oct-16 00:00N 38°31' W 008°52'0 0.0
2017-Oct-15 23:30N 38°31' W 008°52'0 0.0
2017-Oct-15 23:00N 38°31' W 008°52'0 0.0
2017-Oct-15 22:30N 38°31' W 008°52'0 0.0
2017-Oct-15 22:00N 38°31' W 008°52'0 0.0
2017-Oct-15 21:30N 38°31' W 008°52'0 0.0
2017-Oct-15 20:54N 38°31' W 008°52'0 0.0
2017-Oct-15 20:30N 38°31' W 008°52'0 0.0
2017-Oct-15 20:00N 38°31' W 008°52'0 0.0
2017-Oct-15 19:27N 38°31' W 008°52'0 0.0
2017-Oct-15 19:00N 38°31' W 008°52'0 0.0
2017-Oct-15 18:30N 38°31' W 008°52'0 0.0
2017-Oct-15 17:57N 38°31' W 008°52'1 2.3
2017-Oct-15 17:30N 38°31' W 008°54'4 7.7
2017-Oct-15 17:01N 38°28' W 008°57'3 6.2
2017-Oct-15 16:31N 38°26' W 008°60'2 4.2
2017-Oct-15 16:00N 38°24' W 009°01'3 5.7
2017-Oct-15 15:30N 38°23' W 009°04'510.7
2017-Oct-15 15:00N 38°21' W 009°11'1211.6
2017-Oct-15 14:00N 38°24' W 009°25'611.6
2017-Oct-15 13:30N 38°26' W 009°32'612.1
2017-Oct-15 13:01N 38°28' W 009°39'611.8
2017-Oct-15 12:31N 38°31' W 009°46'611.6
2017-Oct-15 12:00N 38°32' W 009°53'611.7
2017-Oct-15 11:30N 38°34' W 010°00'510.6
2017-Oct-15 11:00N 38°39' W 010°04'612.0
2017-Oct-15 10:30N 38°45' W 010°05'612.3
2017-Oct-15 10:00N 38°51' W 010°05'612.0
2017-Oct-15 09:30N 38°57' W 010°05'612.1
2017-Oct-15 09:00N 39°03' W 010°04'612.5
2017-Oct-15 08:30N 39°09' W 010°03'613.0
2017-Oct-15 08:00N 39°16' W 010°03'713.0
2017-Oct-15 07:30N 39°22' W 010°03'612.6
2017-Oct-15 07:00N 39°28' W 010°03'712.1
2017-Oct-15 06:27N 39°35' W 010°03'612.2
2017-Oct-15 06:00N 39°41' W 010°03'612.0
2017-Oct-15 05:30N 39°47' W 010°03'612.2
2017-Oct-15 05:00N 39°53' W 010°03'612.2
2017-Oct-15 04:30N 39°59' W 010°04'612.2
2017-Oct-15 04:00N 40°05' W 010°04'612.3
2017-Oct-15 03:30N 40°11' W 010°04'712.0
2017-Oct-15 02:54N 40°18' W 010°05'  
2017-Oct-12 16:03N 44°09' W 006°50'14211.0
2017-Oct-12 03:13N 45°19' W 003°57'411.5
2017-Oct-12 02:53N 45°21' W 003°52'6112.2
2017-Oct-11 21:53N 45°49' W 002°35'3212.3
2017-Oct-11 19:18N 46°03' W 001°54'412.0
2017-Oct-11 19:00N 46°05' W 001°50'611.8
2017-Oct-11 18:30N 46°08' W 001°42'611.6
2017-Oct-11 17:59N 46°08' W 001°34'611.6
2017-Oct-11 17:30N 46°07' W 001°26'510.7
2017-Oct-11 17:01N 46°06' W 001°18'4 0.3
2017-Oct-10 23:58N 46°10' W 001°14'0 0.0
2017-Oct-10 23:28N 46°10' W 001°14'0 0.0
2017-Oct-10 22:58N 46°10' W 001°14'0 0.0
2017-Oct-10 22:28N 46°10' W 001°14'0 0.0
2017-Oct-10 21:58N 46°10' W 001°14'0 0.0
2017-Oct-10 21:28N 46°10' W 001°14'0 0.0
2017-Oct-10 20:58N 46°10' W 001°14'0 0.0
2017-Oct-10 20:28N 46°10' W 001°14'0 0.0
2017-Oct-10 19:58N 46°10' W 001°14'0 0.0
2017-Oct-10 19:28N 46°10' W 001°14'0 0.0
2017-Oct-10 18:58N 46°10' W 001°14'0 0.0
2017-Oct-10 18:28N 46°10' W 001°14'0 0.0
2017-Oct-10 17:58N 46°10' W 001°14'0 0.0
2017-Oct-10 17:25N 46°10' W 001°14'0 0.0
2017-Oct-10 16:58N 46°10' W 001°14'0 0.0
2017-Oct-10 16:28N 46°10' W 001°14'0 0.0
2017-Oct-10 15:58N 46°10' W 001°14'0 0.0
2017-Oct-10 15:28N 46°10' W 001°14'0 0.0
2017-Oct-10 14:58N 46°10' W 001°14'0 0.0
2017-Oct-10 13:58N 46°10' W 001°14'0 0.0
2017-Oct-10 13:28N 46°10' W 001°14'0 0.0
2017-Oct-10 12:58N 46°10' W 001°14'0 0.0
2017-Oct-10 12:28N 46°10' W 001°14'0 0.0
2017-Oct-10 11:58N 46°10' W 001°14'0 0.0
2017-Oct-10 11:28N 46°10' W 001°14'0 0.0
2017-Oct-10 10:58N 46°10' W 001°14'0 0.0
2017-Oct-10 10:28N 46°10' W 001°14'0 0.0
2017-Oct-10 09:58N 46°10' W 001°14'0 0.0
2017-Oct-10 09:28N 46°10' W 001°14'0 0.0
2017-Oct-10 08:58N 46°10' W 001°14'0 0.0
2017-Oct-10 08:28N 46°10' W 001°14'0 0.0
2017-Oct-10 07:58N 46°10' W 001°14'0 0.0
2017-Oct-10 07:28N 46°10' W 001°14'0 0.0
2017-Oct-10 06:58N 46°10' W 001°14'0 0.0
2017-Oct-10 06:22N 46°10' W 001°14'0 0.0
2017-Oct-10 05:58N 46°10' W 001°14'0 0.0
2017-Oct-10 05:28N 46°10' W 001°14'0 0.0
2017-Oct-10 04:58N 46°10' W 001°14'0 0.0
2017-Oct-10 04:28N 46°10' W 001°14'0 0.0
2017-Oct-10 03:58N 46°10' W 001°14'0 0.0
2017-Oct-10 03:28N 46°10' W 001°14'0 0.0
2017-Oct-10 02:58N 46°10' W 001°14'0 0.0
2017-Oct-10 02:28N 46°10' W 001°14'0 0.0
2017-Oct-10 01:58N 46°10' W 001°14'0 0.0
2017-Oct-10 01:28N 46°10' W 001°14'0 0.0
2017-Oct-10 00:58N 46°10' W 001°14'0 0.0
2017-Oct-10 00:28N 46°10' W 001°14'0 0.0
2017-Oct-09 23:55N 46°10' W 001°14'0 0.0
2017-Oct-09 23:28N 46°10' W 001°14'0 0.0
2017-Oct-09 22:58N 46°10' W 001°14'0 0.0
2017-Oct-09 22:28N 46°10' W 001°14'0 0.0
2017-Oct-09 21:58N 46°10' W 001°14'0 0.0
2017-Oct-09 21:28N 46°10' W 001°14'0 0.0
2017-Oct-09 20:58N 46°10' W 001°14'0 0.0
2017-Oct-09 20:28N 46°10' W 001°14'0 0.0
2017-Oct-09 19:58N 46°10' W 001°14'0 0.0
2017-Oct-09 19:28N 46°10' W 001°14'0 0.0
2017-Oct-09 18:58N 46°10' W 001°14'0 0.0
2017-Oct-09 18:28N 46°10' W 001°14'0 0.0
2017-Oct-09 17:58N 46°10' W 001°14'0 0.0
2017-Oct-09 17:28N 46°10' W 001°14'0 0.0
2017-Oct-09 16:58N 46°10' W 001°14'  

Dump ship's entire track history